Für Piloten

Informationen für Piloten zum Flugplatz Borken-Hoxfeld
Hier findest Du alle relevanten Informationen, die Du als Pilot benötigst, um Borken-Hoxfeld anzufliegen.

Flugplatz: Borken-Hoxfeld ICAO-Code: EDLY
Borken-Hoxfeld Info: 122,930 Mhz
GAFOR Gebiet: 32
Platzrunde: Motorflug; -> Südplatzrunde; Segelflug; -> Nordplatzrunde;
Landegebühr: z.Zt. 5,00 Euro
Platzhöhe: 48m üMSL
Pisten: 12/30 – 740 m x 30 m, GRAS
Betriebszeiten: PPR (in den Sommermonaten Mittagspause beachten)

 

Wetterforecast:

Available data for EDDL from the past 2 hours
DUESSELDORF
Metar
EDDL 181150Z 32004KT 240V350 9999 -SHRA SCT012CB BKN018 05/04 Q1025 RESHRA NOSIG

11:50 UTC

Wind: 320° 4kt

Visibility: 9999 m

Sky: SCT 1200 ft

Temp: 5 deg C / 41 deg F

Dewpoint: 4 deg C / 39.2 deg F

Pressure: 1025 hPa

TAF
TAF EDDL 180500Z 1806/1912 23010KT 9999 SCT025 PROB30 TEMPO 1813/1818 SHRAGS BKN020CB BECMG 1815/1818 27005KT BECMG 1907/1910 33006KT

Alle obigen Informationen ersetzen nicht die vorgeschriebene, persönliche Flugvorbereitung.